Flight Track Log - Related Links

Times and Time Zones

All times are in EDT time to prevent confusion due to time zone crossing. See the ASQ4356 flight status page for this flight to view local times or setup timezone preferences in your user account.

Time Position Orientation Groundspeed Altitude Reporting Facility
EDT Latitude Longitude Course Direction KTS MPH feet Rate Location/Type
Wed 08:13:45 PM 29.9617 -95.3436 205° Southwest 150 173 800  Level Houston Center
Wed 08:14:28 PM 29.9336 -95.3589 205° Southwest 193 222 2,200 1,657 Climbing Houston Center
Wed 08:15:30 PM 29.8944 -95.4175 232° Southwest 226 260 3,700 1,984 Climbing Houston Center
Wed 08:16:32 PM 29.8750 -95.4975 254° West 259 298 6,300 2,419 Climbing Houston Center
Wed 08:17:34 PM 29.8750 -95.5803 270° West 260 299 8,700 2,177 Climbing Houston Center
Wed 08:18:36 PM 29.9072 -95.6567 296° West 267 307 10,800 1,790 Climbing Houston Center
Wed 08:19:38 PM 29.9489 -95.7606 295° West 296 341 12,400 1,887 Climbing Houston Center
Wed 08:20:40 PM 29.9844 -95.8486 295° West 303 349 14,700 1,935 Climbing Houston Center
Wed 08:21:42 PM 30.0189 -95.9361 294° West 300 345 16,400 1,210 Climbing Houston Center
Wed 08:22:44 PM 30.0592 -96.0356 295° West 313 360 17,200 1,122 Climbing Houston Center
Wed 08:23:45 PM 30.0833 -96.1389 285° West 334 384 18,700 1,366 Climbing Houston Center
Wed 08:24:47 PM 30.0986 -96.2450 279° West 336 387 20,000 1,258 Climbing Houston Center
Wed 08:25:49 PM 30.1153 -96.3522 280° West 342 394 21,300 1,258 Climbing Houston Center
Wed 08:26:51 PM 30.1347 -96.4792 280° West 352 405 22,600 1,161 Climbing Houston Center
Wed 08:27:53 PM 30.1519 -96.5950 280° West 360 414 23,700 1,065 Climbing Houston Center
Wed 08:28:55 PM 30.1686 -96.7136 279° West 368 423 24,800 1,161 Climbing Houston Center
Wed 08:29:57 PM 30.1883 -96.8331 281° West 375 432 26,100 1,317 Climbing Houston Center
Wed 08:30:58 PM 30.2053 -96.9483 280° West 364 419 27,500 1,512 Climbing Houston Center
Wed 08:32:00 PM 30.2211 -97.0614 279° West 353 406 29,200 1,500 Climbing Houston Center
Wed 08:33:02 PM 30.2378 -97.1700 280° West 342 394 30,600 1,306 Climbing Houston Center
Wed 08:34:04 PM 30.2539 -97.2794 280° West 341 392 31,900 1,548 Climbing Houston Center
Wed 08:35:06 PM 30.2692 -97.3869 279° West 336 387 33,800 1,024 Climbing Houston Center
Wed 08:36:07 PM 30.2844 -97.4903 280° West 324 373 34,000 98 Climbing Houston Center
Wed 08:37:09 PM 30.3031 -97.6256 279° West 354 407 34,000  Level Houston Center
Wed 08:38:11 PM 30.3206 -97.7464 280° West 373 429 34,000  Level Houston Center
Wed 08:39:13 PM 30.3378 -97.8692 279° West 380 437 34,000  Level Houston Center
Wed 08:40:15 PM 30.3783 -97.9867 292° West 387 445 34,000  Level Houston Center
Wed 08:41:16 PM 30.4242 -98.1022 295° West 389 448 34,000  Level Houston Center
Wed 08:42:18 PM 30.4700 -98.2203 294° West 396 456 34,000  Level Houston Center
Wed 08:43:20 PM 30.5164 -98.3392 294° West 399 459 34,000  Level Houston Center
Wed 08:44:22 PM 30.5631 -98.4569 295° West 398 458 34,000  Level Houston Center
Wed 08:45:23 PM 30.6083 -98.5733 294° West 393 452 34,000  Level Houston Center
Wed 08:46:25 PM 30.6533 -98.6894 294° West 390 449 34,000  Level Houston Center
Wed 08:47:27 PM 30.6981 -98.8075 294° West 395 455 34,000  Level Houston Center
Wed 08:48:29 PM 30.7508 -98.9447 294° West 396 456 34,000  Level Houston Center
Wed 08:49:31 PM 30.7956 -99.0622 294° West 394 453 34,000  Level Houston Center
Wed 08:50:32 PM 30.8364 -99.1669 294° West 393 452 34,000  Level Houston Center
Wed 08:51:34 PM 30.8800 -99.2831 294° West 393 452 34,000  Level Houston Center
Wed 08:52:36 PM 30.9319 -99.4228 293° West 393 452 34,000  Level Houston Center
Wed 08:53:38 PM 30.9758 -99.5342 295° West 379 436 34,000  Level Houston Center
Wed 08:54:40 PM 31.0164 -99.6464 293° West 374 430 34,000  Level Houston Center
Wed 08:55:42 PM 31.0622 -99.7669 294° West 400 460 34,000  Level Houston Center
Wed 08:56:44 PM 31.1069 -99.8847 294° West 398 458 34,000  Level Houston Center
Wed 08:57:45 PM 31.1508 -100.0039 293° West 397 457 34,000  Level Houston Center
Wed 08:58:47 PM 31.2028 -100.1419 294° West 383 441 34,000  Level Houston Center
Wed 08:59:49 PM 31.2453 -100.2578 293° West 385 443 34,000  Level Houston Center
Wed 09:00:51 PM 31.2900 -100.3728 294° West 388 447 34,000  Level Houston Center
Wed 09:01:53 PM 31.3319 -100.4900 293° West 390 449 34,000 -621 Level Houston Center
Wed 09:02:47 PM 31.3750 -100.6128 292° West 396 456 32,800 -2,421 Descending Fort Worth Center
Wed 09:03:47 PM 31.4161 -100.7261 293° West 391 450 29,400 -3,300 Descending Fort Worth Center
Wed 09:04:47 PM 31.4608 -100.8447 294° West 391 450 26,200 -2,650 Descending Fort Worth Center
Wed 09:05:47 PM 31.5053 -100.9681 293° West 400 460 24,100 -2,150 Descending Fort Worth Center
Wed 09:06:47 PM 31.5500 -101.0894 293° West 400 460 21,900 -2,050 Descending Fort Worth Center
Wed 09:07:47 PM 31.5922 -101.2106 292° West 400 460 20,000 -1,850 Descending Fort Worth Center
Wed 09:08:47 PM 31.6367 -101.3319 293° West 400 460 18,200 -1,700 Descending Fort Worth Center
Wed 09:09:47 PM 31.6725 -101.4531 289° West 400 460 16,600 -1,800 Descending Fort Worth Center
Wed 09:10:47 PM 31.6828 -101.5803 275° West 394 453 14,600 -2,000 Descending Fort Worth Center
Wed 09:11:47 PM 31.6919 -101.6808 276° West 375 432 12,600 -1,800 Descending Fort Worth Center
Wed 09:12:47 PM 31.7053 -101.7817 279° West 344 396 11,000 -1,850 Descending Fort Worth Center
Wed 09:13:47 PM 31.7206 -101.8775 281° West 319 367 8,900 -1,950 Descending Fort Worth Center
Wed 09:14:47 PM 31.7406 -101.9639 285° West 293 337 7,100 -1,450 Descending Fort Worth Center
Wed 09:15:47 PM 31.7728 -102.0511 294° West 287 330 6,000 -550 Descending Fort Worth Center
Wed 09:16:47 PM 31.8075 -102.1311 297° West 282 325 6,000  Level Fort Worth Center
Wed 09:17:47 PM 31.8397 -102.2133 295° West 282 325 6,000 -50 Level Fort Worth Center
Wed 09:18:47 PM 31.8706 -102.2836 297° West 264 304 5,900 -100 Descending Fort Worth Center

Login

Don't have an account? Register now (free) for customized features, flight alerts, and more!